sensor_id;sensor_type;location;lat;lon;timestamp;temperature;humidity
27224;DHT22;14965;50.660;13.226;2023-11-25T00:02:12;0.00;99.90
27224;DHT22;14965;50.660;13.226;2023-11-25T00:04:38;-0.10;99.90
27224;DHT22;14965;50.660;13.226;2023-11-25T00:07:04;-0.10;99.90
27224;DHT22;14965;50.660;13.226;2023-11-25T00:09:30;-0.10;99.90
27224;DHT22;14965;50.660;13.226;2023-11-25T00:11:58;-0.10;99.90
27224;DHT22;14965;50.660;13.226;2023-11-25T00:14:24;-0.10;99.90
27224;DHT22;14965;50.660;13.226;2023-11-25T00:16:50;-0.10;99.90
27224;DHT22;14965;50.660;13.226;2023-11-25T00:19:16;0.00;99.90
27224;DHT22;14965;50.660;13.226;2023-11-25T00:21:42;0.00;99.90
27224;DHT22;14965;50.660;13.226;2023-11-25T00:24:08;-0.10;99.90
27224;DHT22;14965;50.660;13.226;2023-11-25T00:26:34;0.00;99.90
27224;DHT22;14965;50.660;13.226;2023-11-25T00:29:02;-0.10;99.90
27224;DHT22;14965;50.660;13.226;2023-11-25T00:31:27;-0.10;99.90
27224;DHT22;14965;50.660;13.226;2023-11-25T00:33:53;-0.10;99.90
27224;DHT22;14965;50.660;13.226;2023-11-25T00:36:19;-0.20;99.90
27224;DHT22;14965;50.660;13.226;2023-11-25T00:38:45;-0.20;99.90
27224;DHT22;14965;50.660;13.226;2023-11-25T00:41:11;-0.40;99.90
27224;DHT22;14965;50.660;13.226;2023-11-25T00:43:37;-0.50;99.90
27224;DHT22;14965;50.660;13.226;2023-11-25T00:46:05;-0.50;99.90
27224;DHT22;14965;50.660;13.226;2023-11-25T00:48:31;-0.60;99.90
27224;DHT22;14965;50.660;13.226;2023-11-25T00:50:57;-0.70;99.90
27224;DHT22;14965;50.660;13.226;2023-11-25T00:53:23;-0.70;99.90
27224;DHT22;14965;50.660;13.226;2023-11-25T00:55:49;-0.70;99.90
27224;DHT22;14965;50.660;13.226;2023-11-25T00:58:15;-0.80;99.90
27224;DHT22;14965;50.660;13.226;2023-11-25T01:00:41;-0.70;99.90
27224;DHT22;14965;50.660;13.226;2023-11-25T01:03:08;-0.70;99.90
27224;DHT22;14965;50.660;13.226;2023-11-25T01:05:34;-0.70;99.90
27224;DHT22;14965;50.660;13.226;2023-11-25T01:08:00;-0.70;99.90
27224;DHT22;14965;50.660;13.226;2023-11-25T01:10:26;-0.70;99.90
27224;DHT22;14965;50.660;13.226;2023-11-25T01:12:52;-0.70;99.90
27224;DHT22;14965;50.660;13.226;2023-11-25T01:15:17;-0.80;99.90
27224;DHT22;14965;50.660;13.226;2023-11-25T01:17:43;-0.80;99.90
27224;DHT22;14965;50.660;13.226;2023-11-25T01:20:11;-0.80;99.90
27224;DHT22;14965;50.660;13.226;2023-11-25T01:22:37;-0.80;99.90
27224;DHT22;14965;50.660;13.226;2023-11-25T01:25:04;-0.90;99.90
27224;DHT22;14965;50.660;13.226;2023-11-25T01:27:30;-0.90;99.90
27224;DHT22;14965;50.660;13.226;2023-11-25T01:29:56;-0.90;99.90
27224;DHT22;14965;50.660;13.226;2023-11-25T01:32:22;-0.90;99.90
27224;DHT22;14965;50.660;13.226;2023-11-25T01:34:48;-0.90;99.90
27224;DHT22;14965;50.660;13.226;2023-11-25T01:37:16;-0.90;99.90
27224;DHT22;14965;50.660;13.226;2023-11-25T01:39:42;-0.90;99.90
27224;DHT22;14965;50.660;13.226;2023-11-25T01:42:08;-0.90;99.90
27224;DHT22;14965;50.660;13.226;2023-11-25T01:44:34;-1.00;99.90
27224;DHT22;14965;50.660;13.226;2023-11-25T01:47:00;-1.00;99.90
27224;DHT22;14965;50.660;13.226;2023-11-25T01:49:26;-1.00;99.90
27224;DHT22;14965;50.660;13.226;2023-11-25T01:51:53;-1.00;99.90
27224;DHT22;14965;50.660;13.226;2023-11-25T01:54:22;-1.00;99.90
27224;DHT22;14965;50.660;13.226;2023-11-25T01:56:52;-0.90;99.90
27224;DHT22;14965;50.660;13.226;2023-11-25T01:59:22;-0.90;99.90
27224;DHT22;14965;50.660;13.226;2023-11-25T02:01:51;-0.90;99.90
27224;DHT22;14965;50.660;13.226;2023-11-25T02:04:17;-0.90;99.90
27224;DHT22;14965;50.660;13.226;2023-11-25T02:06:43;-0.90;99.90
27224;DHT22;14965;50.660;13.226;2023-11-25T02:09:09;-0.90;99.90
27224;DHT22;14965;50.660;13.226;2023-11-25T02:11:54;-0.90;99.90
27224;DHT22;14965;50.660;13.226;2023-11-25T02:14:21;-0.90;99.90
27224;DHT22;14965;50.660;13.226;2023-11-25T02:16:47;-0.90;99.90
27224;DHT22;14965;50.660;13.226;2023-11-25T02:19:13;-0.90;99.90
27224;DHT22;14965;50.660;13.226;2023-11-25T02:21:39;-0.90;99.90
27224;DHT22;14965;50.660;13.226;2023-11-25T02:24:07;-0.90;99.90
27224;DHT22;14965;50.660;13.226;2023-11-25T02:26:33;-0.90;99.90
27224;DHT22;14965;50.660;13.226;2023-11-25T02:28:59;-0.90;99.90
27224;DHT22;14965;50.660;13.226;2023-11-25T02:31:25;-0.90;99.90
27224;DHT22;14965;50.660;13.226;2023-11-25T02:33:51;-0.90;99.90
27224;DHT22;14965;50.660;13.226;2023-11-25T02:36:17;-0.90;99.90
27224;DHT22;14965;50.660;13.226;2023-11-25T02:38:43;-0.90;99.90
27224;DHT22;14965;50.660;13.226;2023-11-25T02:41:11;-0.90;99.90
27224;DHT22;14965;50.660;13.226;2023-11-25T02:43:37;-0.80;99.90
27224;DHT22;14965;50.660;13.226;2023-11-25T02:46:03;-0.90;99.90
27224;DHT22;14965;50.660;13.226;2023-11-25T02:48:29;-0.90;99.90
27224;DHT22;14965;50.660;13.226;2023-11-25T02:50:55;-1.00;99.90
27224;DHT22;14965;50.660;13.226;2023-11-25T02:53:21;-1.00;99.90
27224;DHT22;14965;50.660;13.226;2023-11-25T02:55:47;-1.00;99.90
27224;DHT22;14965;50.660;13.226;2023-11-25T02:58:15;-1.00;99.90
27224;DHT22;14965;50.660;13.226;2023-11-25T03:00:41;-1.00;99.90
27224;DHT22;14965;50.660;13.226;2023-11-25T03:03:07;-1.00;99.90
27224;DHT22;14965;50.660;13.226;2023-11-25T03:05:33;-1.00;99.90
27224;DHT22;14965;50.660;13.226;2023-11-25T03:07:59;-1.10;99.90
27224;DHT22;14965;50.660;13.226;2023-11-25T03:10:25;-1.10;99.90
27224;DHT22;14965;50.660;13.226;2023-11-25T03:12:51;-1.10;99.90
27224;DHT22;14965;50.660;13.226;2023-11-25T03:15:19;-1.10;99.90
27224;DHT22;14965;50.660;13.226;2023-11-25T03:17:45;-1.00;99.90
27224;DHT22;14965;50.660;13.226;2023-11-25T03:20:11;-1.00;99.90
27224;DHT22;14965;50.660;13.226;2023-11-25T03:22:37;-1.00;99.90
27224;DHT22;14965;50.660;13.226;2023-11-25T03:25:03;-1.00;99.90
27224;DHT22;14965;50.660;13.226;2023-11-25T03:27:30;-1.00;99.90
27224;DHT22;14965;50.660;13.226;2023-11-25T03:29:56;-1.00;99.90
27224;DHT22;14965;50.660;13.226;2023-11-25T03:32:24;-1.00;99.90
27224;DHT22;14965;50.660;13.226;2023-11-25T03:34:50;-1.00;99.90
27224;DHT22;14965;50.660;13.226;2023-11-25T03:37:16;-0.90;99.90
27224;DHT22;14965;50.660;13.226;2023-11-25T03:39:42;-0.90;99.90
27224;DHT22;14965;50.660;13.226;2023-11-25T03:42:08;-1.00;99.90
27224;DHT22;14965;50.660;13.226;2023-11-25T03:44:34;-0.90;99.90
27224;DHT22;14965;50.660;13.226;2023-11-25T03:47:01;-0.90;99.90
27224;DHT22;14965;50.660;13.226;2023-11-25T03:49:28;-0.90;99.90
27224;DHT22;14965;50.660;13.226;2023-11-25T03:51:55;-0.90;99.90
27224;DHT22;14965;50.660;13.226;2023-11-25T03:54:21;-0.90;99.90
27224;DHT22;14965;50.660;13.226;2023-11-25T03:56:48;-0.90;99.90
27224;DHT22;14965;50.660;13.226;2023-11-25T03:59:14;-0.90;99.90
27224;DHT22;14965;50.660;13.226;2023-11-25T04:01:41;-0.90;99.90
27224;DHT22;14965;50.660;13.226;2023-11-25T04:04:07;-0.90;99.90
27224;DHT22;14965;50.660;13.226;2023-11-25T04:06:35;-0.90;99.90
27224;DHT22;14965;50.660;13.226;2023-11-25T04:09:01;-0.80;99.90
27224;DHT22;14965;50.660;13.226;2023-11-25T04:11:27;-0.80;99.90
27224;DHT22;14965;50.660;13.226;2023-11-25T04:13:53;-0.90;99.90
27224;DHT22;14965;50.660;13.226;2023-11-25T04:16:19;-0.90;99.90
27224;DHT22;14965;50.660;13.226;2023-11-25T04:18:45;-0.90;99.90
27224;DHT22;14965;50.660;13.226;2023-11-25T04:21:11;-0.90;99.90
27224;DHT22;14965;50.660;13.226;2023-11-25T04:23:38;-0.90;99.90
27224;DHT22;14965;50.660;13.226;2023-11-25T04:26:04;-0.90;99.90
27224;DHT22;14965;50.660;13.226;2023-11-25T04:28:31;-0.80;99.90
27224;DHT22;14965;50.660;13.226;2023-11-25T04:30:57;-0.80;99.90
27224;DHT22;14965;50.660;13.226;2023-11-25T04:33:22;-0.80;99.90
27224;DHT22;14965;50.660;13.226;2023-11-25T04:35:48;-0.70;99.90
27224;DHT22;14965;50.660;13.226;2023-11-25T04:38:14;-0.70;99.90
27224;DHT22;14965;50.660;13.226;2023-11-25T04:40:42;-0.70;99.90
27224;DHT22;14965;50.660;13.226;2023-11-25T04:43:08;-0.70;99.90
27224;DHT22;14965;50.660;13.226;2023-11-25T04:45:34;-0.70;99.90
27224;DHT22;14965;50.660;13.226;2023-11-25T04:48:00;-0.80;99.90
27224;DHT22;14965;50.660;13.226;2023-11-25T04:50:26;-0.80;99.90
27224;DHT22;14965;50.660;13.226;2023-11-25T04:52:53;-0.70;99.90
27224;DHT22;14965;50.660;13.226;2023-11-25T04:55:19;-0.70;99.90
27224;DHT22;14965;50.660;13.226;2023-11-25T04:57:46;-0.70;99.90
27224;DHT22;14965;50.660;13.226;2023-11-25T05:00:13;-0.70;99.90
27224;DHT22;14965;50.660;13.226;2023-11-25T05:02:40;-0.70;99.90
27224;DHT22;14965;50.660;13.226;2023-11-25T05:05:07;-0.70;99.90
27224;DHT22;14965;50.660;13.226;2023-11-25T05:07:34;-0.70;99.90
27224;DHT22;14965;50.660;13.226;2023-11-25T05:10:00;-0.70;99.90
27224;DHT22;14965;50.660;13.226;2023-11-25T05:12:28;-0.70;99.90
27224;DHT22;14965;50.660;13.226;2023-11-25T05:14:55;-0.70;99.90
27224;DHT22;14965;50.660;13.226;2023-11-25T05:17:21;-0.70;99.90
27224;DHT22;14965;50.660;13.226;2023-11-25T05:19:48;-0.70;99.90
27224;DHT22;14965;50.660;13.226;2023-11-25T05:22:14;-0.70;99.90
27224;DHT22;14965;50.660;13.226;2023-11-25T05:24:40;-0.70;99.90
27224;DHT22;14965;50.660;13.226;2023-11-25T05:27:06;-0.60;99.90
27224;DHT22;14965;50.660;13.226;2023-11-25T05:29:32;-0.60;99.90
27224;DHT22;14965;50.660;13.226;2023-11-25T05:31:59;-0.60;99.90
27224;DHT22;14965;50.660;13.226;2023-11-25T05:34:26;-0.60;99.90
27224;DHT22;14965;50.660;13.226;2023-11-25T05:36:52;-0.60;99.90
27224;DHT22;14965;50.660;13.226;2023-11-25T05:39:18;-0.50;99.90
27224;DHT22;14965;50.660;13.226;2023-11-25T05:41:44;-0.60;99.90
27224;DHT22;14965;50.660;13.226;2023-11-25T05:44:10;-0.70;99.90
27224;DHT22;14965;50.660;13.226;2023-11-25T05:46:36;-0.70;99.90
27224;DHT22;14965;50.660;13.226;2023-11-25T05:49:04;-0.60;99.90
27224;DHT22;14965;50.660;13.226;2023-11-25T05:51:34;-0.70;99.90
27224;DHT22;14965;50.660;13.226;2023-11-25T05:54:01;-0.60;99.90
27224;DHT22;14965;50.660;13.226;2023-11-25T05:56:28;-0.70;99.90
27224;DHT22;14965;50.660;13.226;2023-11-25T05:58:54;-0.70;99.90
27224;DHT22;14965;50.660;13.226;2023-11-25T06:01:20;-0.70;99.90
27224;DHT22;14965;50.660;13.226;2023-11-25T06:03:46;-0.70;99.90
27224;DHT22;14965;50.660;13.226;2023-11-25T06:06:14;-0.70;99.90
27224;DHT22;14965;50.660;13.226;2023-11-25T06:08:40;-0.80;99.90
27224;DHT22;14965;50.660;13.226;2023-11-25T06:11:06;-0.80;99.90
27224;DHT22;14965;50.660;13.226;2023-11-25T06:13:32;-0.80;99.90
27224;DHT22;14965;50.660;13.226;2023-11-25T06:15:58;-0.80;99.90
27224;DHT22;14965;50.660;13.226;2023-11-25T06:18:24;-0.80;99.90
27224;DHT22;14965;50.660;13.226;2023-11-25T06:20:50;-0.80;99.90
27224;DHT22;14965;50.660;13.226;2023-11-25T06:23:17;-0.80;99.90
27224;DHT22;14965;50.660;13.226;2023-11-25T06:25:43;-0.80;99.90
27224;DHT22;14965;50.660;13.226;2023-11-25T06:28:12;-0.80;99.90
27224;DHT22;14965;50.660;13.226;2023-11-25T06:30:38;-0.90;99.90
27224;DHT22;14965;50.660;13.226;2023-11-25T06:33:05;-0.90;99.90
27224;DHT22;14965;50.660;13.226;2023-11-25T06:35:31;-0.90;99.90
27224;DHT22;14965;50.660;13.226;2023-11-25T06:37:57;-0.90;99.90
27224;DHT22;14965;50.660;13.226;2023-11-25T06:40:25;-0.90;99.90
27224;DHT22;14965;50.660;13.226;2023-11-25T06:42:51;-0.90;99.90
27224;DHT22;14965;50.660;13.226;2023-11-25T06:45:17;-0.90;99.90
27224;DHT22;14965;50.660;13.226;2023-11-25T06:47:42;-0.90;99.90
27224;DHT22;14965;50.660;13.226;2023-11-25T06:50:09;-0.90;99.90
27224;DHT22;14965;50.660;13.226;2023-11-25T06:52:35;-0.90;99.90
27224;DHT22;14965;50.660;13.226;2023-11-25T06:55:02;-0.80;99.90
27224;DHT22;14965;50.660;13.226;2023-11-25T06:57:30;-0.80;99.90
27224;DHT22;14965;50.660;13.226;2023-11-25T06:59:56;-0.80;99.90
27224;DHT22;14965;50.660;13.226;2023-11-25T07:02:22;-0.80;99.90
27224;DHT22;14965;50.660;13.226;2023-11-25T07:04:48;-0.80;99.90
27224;DHT22;14965;50.660;13.226;2023-11-25T07:07:14;-0.80;99.90
27224;DHT22;14965;50.660;13.226;2023-11-25T07:09:39;-0.80;99.90
27224;DHT22;14965;50.660;13.226;2023-11-25T07:12:06;-0.80;99.90
27224;DHT22;14965;50.660;13.226;2023-11-25T07:14:34;-0.70;99.90
27224;DHT22;14965;50.660;13.226;2023-11-25T07:17:00;-0.80;99.90
27224;DHT22;14965;50.660;13.226;2023-11-25T07:19:26;-0.70;99.90
27224;DHT22;14965;50.660;13.226;2023-11-25T07:21:52;-0.70;99.90
27224;DHT22;14965;50.660;13.226;2023-11-25T07:24:18;-0.70;99.90
27224;DHT22;14965;50.660;13.226;2023-11-25T07:26:43;-0.70;99.90
27224;DHT22;14965;50.660;13.226;2023-11-25T07:29:09;-0.60;99.90
27224;DHT22;14965;50.660;13.226;2023-11-25T07:31:37;-0.60;99.90
27224;DHT22;14965;50.660;13.226;2023-11-25T07:34:03;-0.70;99.90
27224;DHT22;14965;50.660;13.226;2023-11-25T07:36:29;-0.70;99.90
27224;DHT22;14965;50.660;13.226;2023-11-25T07:38:55;-0.80;99.90
27224;DHT22;14965;50.660;13.226;2023-11-25T07:41:21;-0.80;99.90
27224;DHT22;14965;50.660;13.226;2023-11-25T07:43:47;-0.70;99.90
27224;DHT22;14965;50.660;13.226;2023-11-25T07:46:13;-0.70;99.90
27224;DHT22;14965;50.660;13.226;2023-11-25T07:48:40;-0.70;99.90
27224;DHT22;14965;50.660;13.226;2023-11-25T07:51:06;-0.70;99.90
27224;DHT22;14965;50.660;13.226;2023-11-25T07:53:32;-0.70;99.90
27224;DHT22;14965;50.660;13.226;2023-11-25T07:55:58;-0.70;99.90
27224;DHT22;14965;50.660;13.226;2023-11-25T07:58:24;-0.60;99.90
27224;DHT22;14965;50.660;13.226;2023-11-25T08:00:50;-0.60;99.90
27224;DHT22;14965;50.660;13.226;2023-11-25T08:03:16;-0.50;99.90
27224;DHT22;14965;50.660;13.226;2023-11-25T08:05:43;-0.50;99.90
27224;DHT22;14965;50.660;13.226;2023-11-25T08:08:09;-0.40;99.90
27224;DHT22;14965;50.660;13.226;2023-11-25T08:10:35;-0.40;99.90
27224;DHT22;14965;50.660;13.226;2023-11-25T08:13:01;-0.40;99.90
27224;DHT22;14965;50.660;13.226;2023-11-25T08:15:28;-0.30;99.90
27224;DHT22;14965;50.660;13.226;2023-11-25T08:17:54;-0.40;99.90
27224;DHT22;14965;50.660;13.226;2023-11-25T08:20:20;-0.30;99.90
27224;DHT22;14965;50.660;13.226;2023-11-25T08:22:48;-0.40;99.90
27224;DHT22;14965;50.660;13.226;2023-11-25T08:25:14;-0.50;99.90
27224;DHT22;14965;50.660;13.226;2023-11-25T08:27:40;-0.40;99.90
27224;DHT22;14965;50.660;13.226;2023-11-25T08:30:07;-0.40;99.90
27224;DHT22;14965;50.660;13.226;2023-11-25T08:32:33;-0.40;99.90
27224;DHT22;14965;50.660;13.226;2023-11-25T08:34:59;-0.40;99.90
27224;DHT22;14965;50.660;13.226;2023-11-25T08:37:26;-0.40;99.90
27224;DHT22;14965;50.660;13.226;2023-11-25T08:39:54;-0.40;99.90
27224;DHT22;14965;50.660;13.226;2023-11-25T08:42:20;-0.50;99.90
27224;DHT22;14965;50.660;13.226;2023-11-25T08:44:46;-0.40;99.90
27224;DHT22;14965;50.660;13.226;2023-11-25T08:47:12;-0.40;99.90
27224;DHT22;14965;50.660;13.226;2023-11-25T08:49:38;-0.30;99.90
27224;DHT22;14965;50.660;13.226;2023-11-25T08:52:04;-0.30;99.90
27224;DHT22;14965;50.660;13.226;2023-11-25T08:54:30;-0.20;99.90
27224;DHT22;14965;50.660;13.226;2023-11-25T08:56:59;-0.10;99.90
27224;DHT22;14965;50.660;13.226;2023-11-25T08:59:25;-0.10;99.90
27224;DHT22;14965;50.660;13.226;2023-11-25T09:01:51;-0.10;99.90
27224;DHT22;14965;50.660;13.226;2023-11-25T09:04:17;0.00;99.90
27224;DHT22;14965;50.660;13.226;2023-11-25T09:06:43;0.00;99.90
27224;DHT22;14965;50.660;13.226;2023-11-25T09:09:09;0.10;99.90
27224;DHT22;14965;50.660;13.226;2023-11-25T09:11:35;0.20;99.90
27224;DHT22;14965;50.660;13.226;2023-11-25T09:14:02;0.10;99.90
27224;DHT22;14965;50.660;13.226;2023-11-25T09:16:28;0.20;99.90
27224;DHT22;14965;50.660;13.226;2023-11-25T09:18:54;0.30;99.90
27224;DHT22;14965;50.660;13.226;2023-11-25T09:21:20;0.40;99.90
27224;DHT22;14965;50.660;13.226;2023-11-25T09:23:46;0.50;99.90
27224;DHT22;14965;50.660;13.226;2023-11-25T09:26:12;0.50;99.90
27224;DHT22;14965;50.660;13.226;2023-11-25T09:28:38;0.50;99.90
27224;DHT22;14965;50.660;13.226;2023-11-25T09:31:05;0.60;99.90
27224;DHT22;14965;50.660;13.226;2023-11-25T09:33:32;0.60;99.90
27224;DHT22;14965;50.660;13.226;2023-11-25T09:35:58;0.70;99.90
27224;DHT22;14965;50.660;13.226;2023-11-25T09:38:24;0.60;99.90
27224;DHT22;14965;50.660;13.226;2023-11-25T09:40:50;0.70;99.90
27224;DHT22;14965;50.660;13.226;2023-11-25T09:43:17;0.80;99.90
27224;DHT22;14965;50.660;13.226;2023-11-25T09:45:44;0.90;99.90
27224;DHT22;14965;50.660;13.226;2023-11-25T09:48:12;0.90;99.90
27224;DHT22;14965;50.660;13.226;2023-11-25T09:50:38;0.90;99.90
27224;DHT22;14965;50.660;13.226;2023-11-25T09:53:09;0.90;99.90
27224;DHT22;14965;50.660;13.226;2023-11-25T09:55:38;0.90;99.90
27224;DHT22;14965;50.660;13.226;2023-11-25T09:58:06;1.00;99.90
27224;DHT22;14965;50.660;13.226;2023-11-25T10:00:32;1.00;99.90
27224;DHT22;14965;50.660;13.226;2023-11-25T10:03:00;1.10;99.90
27224;DHT22;14965;50.660;13.226;2023-11-25T10:05:28;1.10;99.90
27224;DHT22;14965;50.660;13.226;2023-11-25T10:07:54;1.00;99.90
27224;DHT22;14965;50.660;13.226;2023-11-25T10:10:20;0.90;99.90
27224;DHT22;14965;50.660;13.226;2023-11-25T10:12:46;0.90;99.90
27224;DHT22;14965;50.660;13.226;2023-11-25T10:15:13;1.00;99.90
27224;DHT22;14965;50.660;13.226;2023-11-25T10:17:42;1.10;99.90
27224;DHT22;14965;50.660;13.226;2023-11-25T10:20:09;1.10;99.90
27224;DHT22;14965;50.660;13.226;2023-11-25T10:22:48;1.10;99.90
27224;DHT22;14965;50.660;13.226;2023-11-25T10:25:18;1.30;99.90
27224;DHT22;14965;50.660;13.226;2023-11-25T10:27:44;1.20;99.90
27224;DHT22;14965;50.660;13.226;2023-11-25T10:30:15;1.20;99.90
27224;DHT22;14965;50.660;13.226;2023-11-25T10:32:41;1.20;99.90
27224;DHT22;14965;50.660;13.226;2023-11-25T10:35:08;1.10;99.90
27224;DHT22;14965;50.660;13.226;2023-11-25T10:37:36;1.10;99.90
27224;DHT22;14965;50.660;13.226;2023-11-25T10:40:06;1.10;99.90
27224;DHT22;14965;50.660;13.226;2023-11-25T10:42:33;1.10;99.90
27224;DHT22;14965;50.660;13.226;2023-11-25T10:44:59;1.10;99.90
27224;DHT22;14965;50.660;13.226;2023-11-25T10:47:30;1.10;99.90
27224;DHT22;14965;50.660;13.226;2023-11-25T10:49:58;1.00;99.90
27224;DHT22;14965;50.660;13.226;2023-11-25T10:52:24;1.00;99.90
27224;DHT22;14965;50.660;13.226;2023-11-25T10:54:53;1.00;99.90
27224;DHT22;14965;50.660;13.226;2023-11-25T10:57:21;1.00;99.90
27224;DHT22;14965;50.660;13.226;2023-11-25T10:59:49;1.00;99.90
27224;DHT22;14965;50.660;13.226;2023-11-25T11:02:25;0.90;99.90
27224;DHT22;14965;50.660;13.226;2023-11-25T11:04:58;0.90;99.90
27224;DHT22;14965;50.660;13.226;2023-11-25T11:07:26;0.90;99.90
27224;DHT22;14965;50.660;13.226;2023-11-25T11:09:56;0.90;99.90
27224;DHT22;14965;50.660;13.226;2023-11-25T11:12:28;0.90;99.90
27224;DHT22;14965;50.660;13.226;2023-11-25T11:15:03;1.00;99.90
27224;DHT22;14965;50.660;13.226;2023-11-25T11:17:36;1.00;99.90
27224;DHT22;14965;50.660;13.226;2023-11-25T11:20:05;1.20;99.90
27224;DHT22;14965;50.660;13.226;2023-11-25T11:22:36;1.20;99.90
27224;DHT22;14965;50.660;13.226;2023-11-25T11:25:14;1.20;99.90
27224;DHT22;14965;50.660;13.226;2023-11-25T11:27:53;1.10;99.90
27224;DHT22;14965;50.660;13.226;2023-11-25T11:30:32;1.20;99.90
27224;DHT22;14965;50.660;13.226;2023-11-25T11:33:06;1.10;99.90
27224;DHT22;14965;50.660;13.226;2023-11-25T11:35:37;1.10;99.90
27224;DHT22;14965;50.660;13.226;2023-11-25T11:38:22;1.10;99.90
27224;DHT22;14965;50.660;13.226;2023-11-25T11:40:50;1.10;99.90
27224;DHT22;14965;50.660;13.226;2023-11-25T11:43:18;1.10;99.90
27224;DHT22;14965;50.660;13.226;2023-11-25T11:45:44;1.20;99.90
27224;DHT22;14965;50.660;13.226;2023-11-25T11:48:12;1.10;99.90
27224;DHT22;14965;50.660;13.226;2023-11-25T11:50:40;1.00;99.90
27224;DHT22;14965;50.660;13.226;2023-11-25T11:53:14;0.90;99.90
27224;DHT22;14965;50.660;13.226;2023-11-25T11:55:42;0.90;99.90
27224;DHT22;14965;50.660;13.226;2023-11-25T11:58:10;0.90;99.90
27224;DHT22;14965;50.660;13.226;2023-11-25T12:00:44;0.90;99.90
27224;DHT22;14965;50.660;13.226;2023-11-25T12:03:12;0.90;99.90
27224;DHT22;14965;50.660;13.226;2023-11-25T12:05:39;0.90;99.90
27224;DHT22;14965;50.660;13.226;2023-11-25T12:08:05;0.90;99.90
27224;DHT22;14965;50.660;13.226;2023-11-25T12:10:31;0.90;99.90
27224;DHT22;14965;50.660;13.226;2023-11-25T12:12:57;0.80;99.90
27224;DHT22;14965;50.660;13.226;2023-11-25T12:15:23;0.80;99.90
27224;DHT22;14965;50.660;13.226;2023-11-25T12:17:51;0.70;99.90
27224;DHT22;14965;50.660;13.226;2023-11-25T12:20:17;0.70;99.90
27224;DHT22;14965;50.660;13.226;2023-11-25T12:22:45;0.70;99.90
27224;DHT22;14965;50.660;13.226;2023-11-25T12:25:11;0.70;99.90
27224;DHT22;14965;50.660;13.226;2023-11-25T12:27:38;0.60;99.90
27224;DHT22;14965;50.660;13.226;2023-11-25T12:30:11;0.60;99.90
27224;DHT22;14965;50.660;13.226;2023-11-25T12:32:38;0.60;99.90
27224;DHT22;14965;50.660;13.226;2023-11-25T12:35:06;0.60;99.90
27224;DHT22;14965;50.660;13.226;2023-11-25T12:37:32;0.60;99.90
27224;DHT22;14965;50.660;13.226;2023-11-25T12:40:14;0.60;99.90
27224;DHT22;14965;50.660;13.226;2023-11-25T12:42:43;0.60;99.90
27224;DHT22;14965;50.660;13.226;2023-11-25T12:45:09;0.60;99.90
27224;DHT22;14965;50.660;13.226;2023-11-25T12:47:46;0.60;99.90
27224;DHT22;14965;50.660;13.226;2023-11-25T12:50:13;0.60;99.90
27224;DHT22;14965;50.660;13.226;2023-11-25T12:52:40;0.70;99.90
27224;DHT22;14965;50.660;13.226;2023-11-25T12:55:06;0.70;99.90
27224;DHT22;14965;50.660;13.226;2023-11-25T12:57:32;0.70;99.90
27224;DHT22;14965;50.660;13.226;2023-11-25T13:00:06;0.60;99.90
27224;DHT22;14965;50.660;13.226;2023-11-25T13:02:32;0.60;99.90
27224;DHT22;14965;50.660;13.226;2023-11-25T13:04:58;0.60;99.90
27224;DHT22;14965;50.660;13.226;2023-11-25T13:07:29;0.60;99.90
27224;DHT22;14965;50.660;13.226;2023-11-25T13:09:56;0.70;99.90
27224;DHT22;14965;50.660;13.226;2023-11-25T13:12:22;0.70;99.90
27224;DHT22;14965;50.660;13.226;2023-11-25T13:14:48;0.70;99.90
27224;DHT22;14965;50.660;13.226;2023-11-25T13:17:14;0.60;99.90
27224;DHT22;14965;50.660;13.226;2023-11-25T13:19:40;0.60;99.90
27224;DHT22;14965;50.660;13.226;2023-11-25T13:22:06;0.70;99.90
27224;DHT22;14965;50.660;13.226;2023-11-25T13:24:33;0.70;99.90
27224;DHT22;14965;50.660;13.226;2023-11-25T13:26:59;0.70;99.90
27224;DHT22;14965;50.660;13.226;2023-11-25T13:29:25;0.70;99.90
27224;DHT22;14965;50.660;13.226;2023-11-25T13:31:51;0.70;99.90
27224;DHT22;14965;50.660;13.226;2023-11-25T13:34:17;0.60;99.90
27224;DHT22;14965;50.660;13.226;2023-11-25T13:36:43;0.60;99.90
27224;DHT22;14965;50.660;13.226;2023-11-25T13:39:09;0.70;99.90
27224;DHT22;14965;50.660;13.226;2023-11-25T13:41:37;0.70;99.90
27224;DHT22;14965;50.660;13.226;2023-11-25T13:44:03;0.70;99.90
27224;DHT22;14965;50.660;13.226;2023-11-25T13:46:29;0.60;99.90
27224;DHT22;14965;50.660;13.226;2023-11-25T13:48:55;0.60;99.90
27224;DHT22;14965;50.660;13.226;2023-11-25T13:51:21;0.60;99.90
27224;DHT22;14965;50.660;13.226;2023-11-25T13:53:47;0.70;99.90
27224;DHT22;14965;50.660;13.226;2023-11-25T13:56:13;0.70;99.90
27224;DHT22;14965;50.660;13.226;2023-11-25T13:58:40;0.70;99.90
27224;DHT22;14965;50.660;13.226;2023-11-25T14:01:06;0.70;99.90
27224;DHT22;14965;50.660;13.226;2023-11-25T14:03:32;0.60;99.90
27224;DHT22;14965;50.660;13.226;2023-11-25T14:05:58;0.60;99.90
27224;DHT22;14965;50.660;13.226;2023-11-25T14:08:24;0.60;99.90
27224;DHT22;14965;50.660;13.226;2023-11-25T14:10:50;0.60;99.90
27224;DHT22;14965;50.660;13.226;2023-11-25T14:13:16;0.50;99.90
27224;DHT22;14965;50.660;13.226;2023-11-25T14:15:43;0.50;99.90
27224;DHT22;14965;50.660;13.226;2023-11-25T14:18:09;0.60;99.90
27224;DHT22;14965;50.660;13.226;2023-11-25T14:20:35;0.60;99.90
27224;DHT22;14965;50.660;13.226;2023-11-25T14:23:01;0.60;99.90
27224;DHT22;14965;50.660;13.226;2023-11-25T14:25:28;0.60;99.90
27224;DHT22;14965;50.660;13.226;2023-11-25T14:27:54;0.60;99.90
27224;DHT22;14965;50.660;13.226;2023-11-25T14:30:20;0.70;99.90
27224;DHT22;14965;50.660;13.226;2023-11-25T14:32:48;0.70;99.90
27224;DHT22;14965;50.660;13.226;2023-11-25T14:35:15;0.70;99.90
27224;DHT22;14965;50.660;13.226;2023-11-25T14:37:42;0.70;99.90
27224;DHT22;14965;50.660;13.226;2023-11-25T14:40:09;0.60;99.90
27224;DHT22;14965;50.660;13.226;2023-11-25T14:42:36;0.70;99.90
27224;DHT22;14965;50.660;13.226;2023-11-25T14:45:02;0.70;99.90
27224;DHT22;14965;50.660;13.226;2023-11-25T14:47:29;0.70;99.90
27224;DHT22;14965;50.660;13.226;2023-11-25T14:49:56;0.70;99.90
27224;DHT22;14965;50.660;13.226;2023-11-25T14:52:22;0.70;99.90
27224;DHT22;14965;50.660;13.226;2023-11-25T14:54:48;0.60;99.90
27224;DHT22;14965;50.660;13.226;2023-11-25T14:57:14;0.60;99.90
27224;DHT22;14965;50.660;13.226;2023-11-25T14:59:41;0.60;99.90
27224;DHT22;14965;50.660;13.226;2023-11-25T15:02:07;0.60;99.90
27224;DHT22;14965;50.660;13.226;2023-11-25T15:04:33;0.60;99.90
27224;DHT22;14965;50.660;13.226;2023-11-25T15:07:00;0.60;99.90
27224;DHT22;14965;50.660;13.226;2023-11-25T15:09:26;0.60;99.90
27224;DHT22;14965;50.660;13.226;2023-11-25T15:11:52;0.60;99.90
27224;DHT22;14965;50.660;13.226;2023-11-25T15:14:18;0.60;99.90
27224;DHT22;14965;50.660;13.226;2023-11-25T15:16:44;0.70;99.90
27224;DHT22;14965;50.660;13.226;2023-11-25T15:19:10;0.60;99.90
27224;DHT22;14965;50.660;13.226;2023-11-25T15:21:37;0.60;99.90